Time;durP1;ratioP1;P1;durP2;ratioP2;P2;SDS_P1;SDS_P2;PMS_P1;PMS_P2;Temp;Humidity;BMP_temperature;BMP_pressure;BME280_temperature;BME280_humidity;BME280_pressure;Samples;Min_cycle;Max_cycle;Signal;HPM_P1;HPM_P2
2023/12/14 00:00:25;;;;;;;17.48;4.65;;;;;;;;;;4879704;29;20040;-71
2023/12/14 00:02:51;;;;;;;11.43;4.00;;;;;;;;;;4896292;29;20036;-71
2023/12/14 00:05:16;;;;;;;8.68;3.22;;;;;;;;;;4894866;29;20036;-72
2023/12/14 00:07:42;;;;;;;19.48;5.20;;;;;;;;;;4895649;29;20048;-71
2023/12/14 00:10:09;;;;;;;6.22;3.75;;;;;;;;;;4896047;29;20062;-72
2023/12/14 00:12:35;;;;;;;18.13;3.65;;;;;;;;;;4896505;29;20041;-71
2023/12/14 00:15:01;;;;;;;19.13;3.42;;;;;;;;;;4896709;29;20119;-71
2023/12/14 00:17:29;;;;;;;11.68;4.03;;;;;;;;;;4879157;29;20056;-72
2023/12/14 00:19:55;;;;;;;15.93;4.75;;;;;;;;;;4895745;29;20056;-72
2023/12/14 00:22:21;;;;;;;8.75;3.33;;;;;;;;;;4895571;29;20041;-72
2023/12/14 00:24:47;;;;;;;9.93;2.88;;;;;;;;;;4895377;29;20112;-73
2023/12/14 00:27:13;;;;;;;15.68;5.85;;;;;;;;;;4895462;29;20418;-73
2023/12/14 00:29:39;;;;;;;14.43;3.47;;;;;;;;;;4878878;29;20040;-71
2023/12/14 00:32:06;;;;;;;13.98;3.92;;;;;;;;;;4895517;29;20044;-71
2023/12/14 00:34:32;;;;;;;13.65;4.80;;;;;;;;;;4894160;29;20285;-72
2023/12/14 00:36:58;;;;;;;16.83;4.07;;;;;;;;;;4895412;29;20096;-72
2023/12/14 00:39:24;;;;;;;12.10;3.75;;;;;;;;;;4894098;29;20036;-72
2023/12/14 00:41:50;;;;;;;11.45;4.68;;;;;;;;;;4878125;29;20132;-72
2023/12/14 00:44:15;;;;;;;3.78;3.33;;;;;;;;;;4895178;29;20503;-72
2023/12/14 00:46:42;;;;;;;15.90;4.40;;;;;;;;;;4895017;29;20052;-72
2023/12/14 00:49:08;;;;;;;11.00;3.75;;;;;;;;;;4895151;29;20032;-71
2023/12/14 00:51:34;;;;;;;31.08;4.40;;;;;;;;;;4878203;29;20074;-71
2023/12/14 00:54:00;;;;;;;9.68;2.13;;;;;;;;;;4894107;29;20043;-72
2023/12/14 00:56:26;;;;;;;7.07;3.05;;;;;;;;;;4862993;29;20036;-72
2023/12/14 00:58:52;;;;;;;13.55;3.85;;;;;;;;;;4878460;29;20041;-71
2023/12/14 01:01:18;;;;;;;12.38;3.92;;;;;;;;;;4895469;29;20499;-72
2023/12/14 01:03:44;;;;;;;16.65;3.80;;;;;;;;;;4894730;29;20051;-71
2023/12/14 01:06:10;;;;;;;21.50;3.95;;;;;;;;;;4895187;29;20032;-71
2023/12/14 01:08:36;;;;;;;13.50;2.95;;;;;;;;;;4893726;29;20037;-71
2023/12/14 01:11:02;;;;;;;21.08;3.53;;;;;;;;;;4895269;29;20043;-72
2023/12/14 01:13:28;;;;;;;18.50;3.83;;;;;;;;;;4895169;29;20040;-72
2023/12/14 01:15:53;;;;;;;16.48;5.03;;;;;;;;;;4894636;29;20041;-72
2023/12/14 01:18:19;;;;;;;11.32;4.53;;;;;;;;;;4874844;29;20139;-71
2023/12/14 01:20:46;;;;;;;14.90;4.10;;;;;;;;;;4876258;29;20423;-71
2023/12/14 01:23:12;;;;;;;10.48;3.38;;;;;;;;;;4876152;29;20033;-72
2023/12/14 01:25:38;;;;;;;12.27;4.55;;;;;;;;;;4874699;29;20076;-71
2023/12/14 01:28:04;;;;;;;7.10;3.60;;;;;;;;;;4876072;29;20201;-72
2023/12/14 01:30:30;;;;;;;3.55;3.25;;;;;;;;;;4875142;29;20740;-72
2023/12/14 01:32:56;;;;;;;8.68;4.05;;;;;;;;;;4874814;29;20040;-71
2023/12/14 01:35:22;;;;;;;10.93;3.75;;;;;;;;;;4860062;29;20528;-72
2023/12/14 01:37:48;;;;;;;29.10;3.90;;;;;;;;;;4877385;29;20492;-71
2023/12/14 01:40:14;;;;;;;6.30;2.30;;;;;;;;;;4876838;29;20093;-71
2023/12/14 01:42:40;;;;;;;11.10;4.03;;;;;;;;;;4877859;29;20448;-71
2023/12/14 01:45:06;;;;;;;11.38;3.80;;;;;;;;;;4877776;29;20527;-71
2023/12/14 01:47:32;;;;;;;25.42;5.93;;;;;;;;;;4878493;29;20048;-71
2023/12/14 01:49:58;;;;;;;13.27;4.47;;;;;;;;;;4879734;29;20070;-71
2023/12/14 01:52:23;;;;;;;33.78;4.35;;;;;;;;;;4879733;29;20037;-71
2023/12/14 01:54:49;;;;;;;15.60;4.82;;;;;;;;;;4879065;29;20041;-71
2023/12/14 01:57:15;;;;;;;7.05;3.15;;;;;;;;;;4880502;29;20040;-70
2023/12/14 01:59:41;;;;;;;15.57;4.25;;;;;;;;;;4878570;29;20041;-70
2023/12/14 02:02:07;;;;;;;13.40;3.70;;;;;;;;;;4879936;29;20141;-70
2023/12/14 02:04:33;;;;;;;6.30;3.03;;;;;;;;;;4879517;29;20036;-71
2023/12/14 02:07:00;;;;;;;19.30;4.20;;;;;;;;;;4879901;29;20592;-70
2023/12/14 02:09:26;;;;;;;13.50;3.42;;;;;;;;;;4881771;29;20536;-70
2023/12/14 02:11:51;;;;;;;12.73;3.80;;;;;;;;;;4886179;29;20048;-71
2023/12/14 02:14:17;;;;;;;5.10;3.10;;;;;;;;;;4887447;29;20047;-72
2023/12/14 02:16:44;;;;;;;12.18;3.10;;;;;;;;;;4886463;29;20112;-70
2023/12/14 02:19:10;;;;;;;27.17;5.93;;;;;;;;;;4885794;29;20037;-70
2023/12/14 02:21:36;;;;;;;8.23;3.20;;;;;;;;;;4884250;29;20033;-71
2023/12/14 02:24:02;;;;;;;16.65;5.10;;;;;;;;;;4891212;29;20336;-71
2023/12/14 02:26:27;;;;;;;7.80;3.05;;;;;;;;;;4896653;29;20060;-71
2023/12/14 02:28:53;;;;;;;15.23;4.13;;;;;;;;;;4902974;29;20635;-71
2023/12/14 02:31:19;;;;;;;8.55;3.00;;;;;;;;;;4898754;29;20596;-71
2023/12/14 02:33:45;;;;;;;5.40;3.35;;;;;;;;;;4900645;29;20104;-71
2023/12/14 02:36:11;;;;;;;22.35;4.65;;;;;;;;;;4886685;29;20068;-71
2023/12/14 02:38:37;;;;;;;8.65;3.80;;;;;;;;;;4899432;29;20024;-72
2023/12/14 02:41:03;;;;;;;22.20;5.65;;;;;;;;;;4897493;29;20392;-71
2023/12/14 02:43:29;;;;;;;24.27;5.07;;;;;;;;;;4896136;29;20131;-72
2023/12/14 02:46:01;;;;;;;8.32;4.72;;;;;;;;;;4897300;29;20108;-71
2023/12/14 02:48:28;;;;;;;17.77;4.35;;;;;;;;;;4896110;29;20056;-70
2023/12/14 02:50:54;;;;;;;13.00;3.50;;;;;;;;;;4897848;29;20342;-71
2023/12/14 02:53:20;;;;;;;22.90;5.93;;;;;;;;;;4897178;29;20040;-70
2023/12/14 02:55:46;;;;;;;17.00;4.32;;;;;;;;;;4896065;29;20033;-73
2023/12/14 02:58:12;;;;;;;16.15;4.82;;;;;;;;;;4896299;29;20044;-70
2023/12/14 03:00:37;;;;;;;18.42;4.55;;;;;;;;;;4880763;29;20047;-71
2023/12/14 03:03:04;;;;;;;14.60;4.50;;;;;;;;;;4897811;29;20509;-71
2023/12/14 03:05:29;;;;;;;26.70;5.80;;;;;;;;;;4896510;29;20048;-71
2023/12/14 03:07:55;;;;;;;1.75;1.65;;;;;;;;;;4897533;29;20049;-71
2023/12/14 03:10:21;;;;;;;20.80;5.47;;;;;;;;;;4897266;29;20051;-71
2023/12/14 03:12:49;;;;;;;16.63;4.65;;;;;;;;;;4896768;29;20147;-71
2023/12/14 03:15:16;;;;;;;18.60;4.07;;;;;;;;;;4895530;29;20116;-70
2023/12/14 03:17:42;;;;;;;8.85;3.30;;;;;;;;;;4909128;29;20063;-71
2023/12/14 03:20:08;;;;;;;11.65;3.10;;;;;;;;;;4898576;29;20044;-71
2023/12/14 03:22:34;;;;;;;10.73;4.07;;;;;;;;;;4898499;29;20501;-71
2023/12/14 03:25:00;;;;;;;10.48;3.40;;;;;;;;;;4915332;29;20036;-71
2023/12/14 03:27:26;;;;;;;22.75;3.63;;;;;;;;;;4915159;29;20111;-72
2023/12/14 03:29:52;;;;;;;19.33;4.35;;;;;;;;;;4911452;29;20543;-69
2023/12/14 03:32:18;;;;;;;23.08;4.68;;;;;;;;;;4898032;29;20475;-70
2023/12/14 03:34:43;;;;;;;10.60;3.92;;;;;;;;;;4912880;29;20123;-70
2023/12/14 03:37:09;;;;;;;24.75;3.65;;;;;;;;;;4914955;29;20115;-70
2023/12/14 03:39:35;;;;;;;13.63;4.90;;;;;;;;;;4912125;29;20524;-69
2023/12/14 03:42:01;;;;;;;28.95;5.82;;;;;;;;;;4897755;29;20032;-70
2023/12/14 03:44:27;;;;;;;13.00;4.82;;;;;;;;;;4914574;29;20040;-70
2023/12/14 03:46:54;;;;;;;10.85;4.47;;;;;;;;;;4914830;29;20052;-69
2023/12/14 03:49:20;;;;;;;20.17;5.00;;;;;;;;;;4914971;29;20547;-69
2023/12/14 03:51:45;;;;;;;10.02;3.80;;;;;;;;;;4914962;29;20127;-70
2023/12/14 03:54:11;;;;;;;11.65;3.42;;;;;;;;;;4914815;29;20406;-70
2023/12/14 03:56:37;;;;;;;6.38;3.97;;;;;;;;;;4914773;29;20506;-70
2023/12/14 03:59:03;;;;;;;9.77;2.85;;;;;;;;;;4913930;29;20032;-70
2023/12/14 04:01:29;;;;;;;12.52;4.05;;;;;;;;;;4897701;29;20086;-69
2023/12/14 04:03:55;;;;;;;30.23;4.63;;;;;;;;;;4914554;29;20388;-70
2023/12/14 04:06:20;;;;;;;20.27;4.65;;;;;;;;;;4882086;29;20032;-69
2023/12/14 04:08:46;;;;;;;17.90;5.00;;;;;;;;;;4914276;29;20499;-69
2023/12/14 04:11:12;;;;;;;9.13;4.15;;;;;;;;;;4914327;29;20598;-69
2023/12/14 04:13:38;;;;;;;12.27;3.83;;;;;;;;;;4914860;29;20465;-69
2023/12/14 04:16:04;;;;;;;17.58;4.85;;;;;;;;;;4914547;29;20696;-69
2023/12/14 04:18:30;;;;;;;7.78;3.10;;;;;;;;;;4914597;29;20519;-69
2023/12/14 04:20:56;;;;;;;18.50;5.03;;;;;;;;;;4896914;29;20140;-69
2023/12/14 04:23:22;;;;;;;33.78;5.05;;;;;;;;;;4914546;29;20148;-69
2023/12/14 04:25:48;;;;;;;12.50;3.50;;;;;;;;;;4920534;29;20038;-69
2023/12/14 04:28:14;;;;;;;25.75;6.78;;;;;;;;;;4918320;29;20063;-69
2023/12/14 04:30:40;;;;;;;14.52;3.58;;;;;;;;;;4897405;29;20506;-70
2023/12/14 04:33:06;;;;;;;15.07;2.65;;;;;;;;;;4896990;29;20036;-69
2023/12/14 04:35:36;;;;;;;20.30;4.53;;;;;;;;;;4914040;29;20043;-69
2023/12/14 04:38:02;;;;;;;12.60;4.60;;;;;;;;;;4897273;29;20028;-70
2023/12/14 04:40:28;;;;;;;18.83;4.00;;;;;;;;;;4913739;29;20126;-70
2023/12/14 04:42:53;;;;;;;20.88;4.28;;;;;;;;;;4913756;29;20111;-70
2023/12/14 04:45:19;;;;;;;15.50;3.97;;;;;;;;;;4897158;29;20142;-70
2023/12/14 04:47:45;;;;;;;16.00;3.92;;;;;;;;;;4913859;29;20052;-70
2023/12/14 04:50:11;;;;;;;7.22;3.35;;;;;;;;;;4913934;29;20065;-69
2023/12/14 04:52:37;;;;;;;7.25;3.33;;;;;;;;;;4896972;29;20044;-69
2023/12/14 04:55:03;;;;;;;9.05;4.30;;;;;;;;;;4896841;29;20044;-69
2023/12/14 04:57:29;;;;;;;12.65;5.00;;;;;;;;;;4896756;29;20039;-69
2023/12/14 04:59:55;;;;;;;17.55;4.47;;;;;;;;;;4881179;29;20040;-70
2023/12/14 05:02:22;;;;;;;13.05;4.15;;;;;;;;;;4897010;29;20036;-69
2023/12/14 05:04:47;;;;;;;12.73;4.15;;;;;;;;;;4913545;29;20591;-70
2023/12/14 05:07:13;;;;;;;4.78;2.92;;;;;;;;;;4881191;29;20134;-70
2023/12/14 05:09:39;;;;;;;15.63;5.55;;;;;;;;;;4913556;29;20036;-70
2023/12/14 05:12:05;;;;;;;15.57;3.50;;;;;;;;;;4913444;29;20048;-70
2023/12/14 05:14:31;;;;;;;15.88;4.00;;;;;;;;;;4913825;29;20036;-70
2023/12/14 05:16:57;;;;;;;18.85;4.30;;;;;;;;;;4896824;29;20594;-69
2023/12/14 05:19:23;;;;;;;14.10;4.00;;;;;;;;;;4913633;29;20032;-70
2023/12/14 05:21:49;;;;;;;24.02;5.32;;;;;;;;;;4895937;29;20405;-69
2023/12/14 05:24:15;;;;;;;12.98;3.60;;;;;;;;;;4896545;29;20040;-70
2023/12/14 05:26:41;;;;;;;27.88;4.30;;;;;;;;;;4913640;29;20040;-70
2023/12/14 05:29:07;;;;;;;14.75;4.68;;;;;;;;;;4894471;29;20044;-68
2023/12/14 05:31:32;;;;;;;22.73;4.90;;;;;;;;;;4911335;29;20099;-70
2023/12/14 05:33:58;;;;;;;9.40;3.55;;;;;;;;;;4909885;29;20060;-69
2023/12/14 05:36:24;;;;;;;17.10;4.93;;;;;;;;;;4907781;29;20051;-68
2023/12/14 05:38:50;;;;;;;8.13;3.35;;;;;;;;;;4912628;29;20051;-69
2023/12/14 05:41:16;;;;;;;8.57;3.85;;;;;;;;;;4896166;29;20043;-69
2023/12/14 05:43:42;;;;;;;6.82;3.03;;;;;;;;;;4912901;29;20135;-69
2023/12/14 05:46:07;;;;;;;17.00;4.38;;;;;;;;;;4877335;29;20594;-69
2023/12/14 05:48:33;;;;;;;9.73;4.82;;;;;;;;;;4907582;29;20099;-69
2023/12/14 05:51:00;;;;;;;22.40;4.60;;;;;;;;;;4912690;29;20100;-69
2023/12/14 05:53:25;;;;;;;8.75;3.17;;;;;;;;;;4912769;29;20036;-69
2023/12/14 05:55:51;;;;;;;20.15;4.40;;;;;;;;;;4894854;29;20032;-70
2023/12/14 05:58:18;;;;;;;25.50;3.60;;;;;;;;;;4895555;29;20040;-70
2023/12/14 06:00:44;;;;;;;16.95;4.80;;;;;;;;;;4895852;29;20036;-70
2023/12/14 06:03:10;;;;;;;48.08;5.05;;;;;;;;;;4911398;29;20056;-70
2023/12/14 06:05:35;;;;;;;5.68;3.75;;;;;;;;;;4883731;29;20060;-70
2023/12/14 06:08:01;;;;;;;25.20;5.57;;;;;;;;;;4895931;29;20495;-69
2023/12/14 06:10:27;;;;;;;22.00;4.88;;;;;;;;;;4880585;29;20042;-70
2023/12/14 06:12:53;;;;;;;7.75;4.38;;;;;;;;;;4912613;29;20036;-70
2023/12/14 06:15:19;;;;;;;19.67;5.22;;;;;;;;;;4912817;29;20036;-69
2023/12/14 06:17:45;;;;;;;11.55;3.28;;;;;;;;;;4911176;29;20071;-68
2023/12/14 06:20:11;;;;;;;13.43;5.35;;;;;;;;;;4895635;29;20532;-69
2023/12/14 06:22:36;;;;;;;19.65;5.38;;;;;;;;;;4914307;29;20180;-69
2023/12/14 06:25:03;;;;;;;31.75;5.68;;;;;;;;;;4883237;29;20505;-69
2023/12/14 06:27:30;;;;;;;23.15;6.28;;;;;;;;;;4877495;29;20045;-69
2023/12/14 06:29:56;;;;;;;24.40;5.28;;;;;;;;;;4876934;29;20100;-70
2023/12/14 06:32:22;;;;;;;19.17;5.32;;;;;;;;;;4877654;29;20028;-71
2023/12/14 06:34:48;;;;;;;55.35;5.15;;;;;;;;;;4897254;29;20092;-74
2023/12/14 06:37:14;;;;;;;30.98;6.13;;;;;;;;;;4897181;29;20040;-71
2023/12/14 06:39:40;;;;;;;19.05;5.15;;;;;;;;;;4897242;29;20530;-73
2023/12/14 06:42:06;;;;;;;12.63;3.90;;;;;;;;;;4899240;29;20040;-70
2023/12/14 06:44:32;;;;;;;13.15;4.82;;;;;;;;;;4896136;29;20036;-70
2023/12/14 06:47:01;;;;;;;19.60;5.13;;;;;;;;;;4896295;29;20052;-70
2023/12/14 06:49:27;;;;;;;20.60;4.60;;;;;;;;;;4893639;29;20526;-68
2023/12/14 06:51:53;;;;;;;20.27;5.38;;;;;;;;;;4896265;29;20410;-69
2023/12/14 06:54:19;;;;;;;12.95;5.05;;;;;;;;;;4909756;29;20043;-69
2023/12/14 06:56:47;;;;;;;14.30;3.95;;;;;;;;;;4906953;29;20040;-69
2023/12/14 06:59:13;;;;;;;15.20;5.10;;;;;;;;;;4905131;29;20032;-68
2023/12/14 07:01:39;;;;;;;16.05;5.65;;;;;;;;;;4903793;29;20099;-69
2023/12/14 07:04:05;;;;;;;22.73;5.43;;;;;;;;;;4895004;29;20542;-69
2023/12/14 07:06:31;;;;;;;14.88;3.50;;;;;;;;;;4909591;29;20043;-69
2023/12/14 07:08:57;;;;;;;31.35;6.30;;;;;;;;;;4896254;29;20091;-68
2023/12/14 07:11:23;;;;;;;21.80;6.65;;;;;;;;;;4906768;29;20063;-69
2023/12/14 07:13:49;;;;;;;23.90;5.85;;;;;;;;;;4908201;29;20123;-70
2023/12/14 07:16:17;;;;;;;25.67;4.78;;;;;;;;;;4908003;29;20047;-69
2023/12/14 07:18:43;;;;;;;20.30;5.50;;;;;;;;;;4911172;29;20063;-68
2023/12/14 07:21:10;;;;;;;7.85;4.90;;;;;;;;;;4893604;29;20035;-69
2023/12/14 07:23:37;;;;;;;17.27;5.35;;;;;;;;;;4890415;29;20052;-69
2023/12/14 07:26:03;;;;;;;25.10;5.63;;;;;;;;;;4912986;29;20060;-68
2023/12/14 07:28:29;;;;;;;32.20;7.28;;;;;;;;;;4908704;29;20095;-69
2023/12/14 07:30:55;;;;;;;32.47;6.00;;;;;;;;;;4880045;29;20028;-69
2023/12/14 07:33:21;;;;;;;19.63;6.57;;;;;;;;;;4892120;29;20092;-69
2023/12/14 07:35:46;;;;;;;45.20;6.38;;;;;;;;;;4904738;29;20029;-70
2023/12/14 07:38:12;;;;;;;28.10;6.22;;;;;;;;;;4891257;29;20039;-69
2023/12/14 07:40:40;;;;;;;21.40;4.95;;;;;;;;;;4906022;29;20040;-69
2023/12/14 07:43:05;;;;;;;9.50;3.83;;;;;;;;;;4910191;29;20039;-70
2023/12/14 07:45:31;;;;;;;22.50;4.55;;;;;;;;;;4890315;29;20044;-69
2023/12/14 07:47:58;;;;;;;14.10;4.53;;;;;;;;;;4908915;29;20554;-69
2023/12/14 07:50:27;;;;;;;12.40;4.63;;;;;;;;;;4911129;29;20622;-69
2023/12/14 07:52:53;;;;;;;24.85;5.22;;;;;;;;;;4911682;29;20122;-69
2023/12/14 07:55:19;;;;;;;10.80;4.45;;;;;;;;;;4908877;29;20024;-68
2023/12/14 07:57:45;;;;;;;30.00;6.78;;;;;;;;;;4894272;29;20036;-69
2023/12/14 08:00:12;;;;;;;12.90;4.57;;;;;;;;;;4908514;29;20039;-69
2023/12/14 08:02:37;;;;;;;15.55;4.68;;;;;;;;;;4892704;29;20038;-68
2023/12/14 08:05:04;;;;;;;24.85;5.72;;;;;;;;;;4912173;29;20028;-69
2023/12/14 08:07:31;;;;;;;19.95;5.53;;;;;;;;;;4892444;29;20044;-69
2023/12/14 08:09:57;;;;;;;22.50;4.40;;;;;;;;;;4894453;29;20112;-68
2023/12/14 08:12:23;;;;;;;20.52;5.45;;;;;;;;;;4895610;29;20077;-69
2023/12/14 08:14:49;;;;;;;21.30;6.57;;;;;;;;;;4907766;29;20032;-68
2023/12/14 08:17:15;;;;;;;24.15;5.50;;;;;;;;;;4892804;29;20063;-68
2023/12/14 08:19:41;;;;;;;23.98;5.47;;;;;;;;;;4912259;29;20051;-70
2023/12/14 08:22:07;;;;;;;14.18;5.35;;;;;;;;;;4908183;29;20426;-67
2023/12/14 08:24:33;;;;;;;17.65;4.97;;;;;;;;;;4909388;29;20146;-68
2023/12/14 08:26:59;;;;;;;20.23;5.38;;;;;;;;;;4911270;29;20468;-67
2023/12/14 08:29:25;;;;;;;35.35;8.20;;;;;;;;;;4914228;29;20411;-68
2023/12/14 08:31:50;;;;;;;11.55;4.70;;;;;;;;;;4912129;29;20507;-69
2023/12/14 08:34:16;;;;;;;20.60;4.82;;;;;;;;;;4893809;29;20024;-69
2023/12/14 08:36:42;;;;;;;19.55;6.35;;;;;;;;;;4909603;29;20039;-70
2023/12/14 08:39:08;;;;;;;33.97;5.47;;;;;;;;;;4905182;29;20041;-69
2023/12/14 08:41:33;;;;;;;17.95;5.30;;;;;;;;;;4908154;29;20607;-67
2023/12/14 08:43:59;;;;;;;16.10;5.05;;;;;;;;;;4904101;29;20036;-68
2023/12/14 08:46:25;;;;;;;14.90;4.50;;;;;;;;;;4907560;29;20032;-68
2023/12/14 08:48:51;;;;;;;14.88;4.95;;;;;;;;;;4903560;29;20048;-68
2023/12/14 08:51:18;;;;;;;19.10;6.57;;;;;;;;;;4905253;29;20024;-68
2023/12/14 08:53:44;;;;;;;24.23;5.13;;;;;;;;;;4892923;29;20044;-69
2023/12/14 08:56:10;;;;;;;32.80;5.60;;;;;;;;;;4905246;29;20032;-68
2023/12/14 08:58:35;;;;;;;7.90;4.20;;;;;;;;;;4906280;29;20099;-70
2023/12/14 09:01:01;;;;;;;20.23;5.45;;;;;;;;;;4909536;29;20065;-71
2023/12/14 09:03:27;;;;;;;27.30;5.85;;;;;;;;;;4886518;29;20046;-69
2023/12/14 09:05:53;;;;;;;15.65;4.88;;;;;;;;;;4890238;29;20118;-69
2023/12/14 09:08:18;;;;;;;24.58;5.75;;;;;;;;;;4891497;29;20096;-68
2023/12/14 09:10:44;;;;;;;22.15;6.05;;;;;;;;;;4893193;29;20057;-69
2023/12/14 09:13:10;;;;;;;13.27;4.28;;;;;;;;;;4890474;29;20041;-68
2023/12/14 09:15:36;;;;;;;15.13;3.92;;;;;;;;;;4855546;29;20120;-68
2023/12/14 09:18:02;;;;;;;17.50;5.55;;;;;;;;;;4892768;29;20059;-69
2023/12/14 09:20:28;;;;;;;33.33;6.63;;;;;;;;;;4874431;29;20138;-69
2023/12/14 09:22:54;;;;;;;33.33;7.20;;;;;;;;;;4878442;29;20120;-69
2023/12/14 09:25:20;;;;;;;32.40;5.63;;;;;;;;;;4897048;29;20025;-69
2023/12/14 09:27:46;;;;;;;28.35;6.97;;;;;;;;;;4909978;29;20048;-69
2023/12/14 09:30:12;;;;;;;27.77;5.57;;;;;;;;;;4907168;29;20031;-69
2023/12/14 09:32:39;;;;;;;11.93;5.25;;;;;;;;;;4905638;29;20047;-69
2023/12/14 09:35:06;;;;;;;16.88;6.03;;;;;;;;;;4910076;29;20577;-68
2023/12/14 09:37:32;;;;;;;13.20;5.03;;;;;;;;;;4908562;29;20569;-68
2023/12/14 09:39:58;;;;;;;33.63;7.25;;;;;;;;;;4893815;29;20033;-68
2023/12/14 09:42:24;;;;;;;24.13;6.10;;;;;;;;;;4900438;29;20044;-69
2023/12/14 09:44:50;;;;;;;25.30;5.75;;;;;;;;;;4892148;29;20040;-68
2023/12/14 09:47:16;;;;;;;20.38;5.75;;;;;;;;;;4894774;29;20040;-68
2023/12/14 09:49:45;;;;;;;25.77;5.70;;;;;;;;;;4911990;29;20521;-70
2023/12/14 09:52:11;;;;;;;31.77;5.65;;;;;;;;;;4913129;29;20502;-68
2023/12/14 09:54:37;;;;;;;19.67;5.43;;;;;;;;;;4914211;29;20032;-68
2023/12/14 09:57:03;;;;;;;25.33;5.80;;;;;;;;;;4915290;29;20028;-69
2023/12/14 09:59:29;;;;;;;30.70;5.85;;;;;;;;;;4914255;29;20084;-68
2023/12/14 10:02:11;;;;;;;17.58;3.65;;;;;;;;;;4912645;29;20035;-69
2023/12/14 10:04:37;;;;;;;22.40;5.05;;;;;;;;;;4911778;29;20095;-68
2023/12/14 10:07:06;;;;;;;22.17;4.82;;;;;;;;;;4911942;29;20100;-69
2023/12/14 10:09:33;;;;;;;18.13;4.90;;;;;;;;;;4898633;29;20527;-67
2023/12/14 10:12:05;;;;;;;22.80;5.57;;;;;;;;;;4916033;29;20574;-68
2023/12/14 10:14:31;;;;;;;15.85;4.55;;;;;;;;;;4898352;29;20036;-68
2023/12/14 10:16:57;;;;;;;13.82;5.40;;;;;;;;;;4897252;29;20100;-68
2023/12/14 10:19:23;;;;;;;17.92;4.88;;;;;;;;;;4913089;29;20038;-68
2023/12/14 10:21:49;;;;;;;15.23;4.65;;;;;;;;;;4891158;29;20083;-68
2023/12/14 10:24:15;;;;;;;12.07;5.00;;;;;;;;;;4883195;29;20491;-68
2023/12/14 10:26:41;;;;;;;21.63;4.93;;;;;;;;;;4888477;29;20049;-67
2023/12/14 10:29:07;;;;;;;18.02;4.72;;;;;;;;;;4914397;29;20562;-66
2023/12/14 10:31:37;;;;;;;13.90;3.92;;;;;;;;;;4913428;29;20039;-68
2023/12/14 10:34:03;;;;;;;54.63;6.80;;;;;;;;;;4897261;29;20044;-69
2023/12/14 10:36:29;;;;;;;23.67;5.43;;;;;;;;;;4891547;29;20069;-68
2023/12/14 10:38:56;;;;;;;15.73;4.43;;;;;;;;;;4914100;29;20039;-68
2023/12/14 10:41:22;;;;;;;26.33;5.80;;;;;;;;;;4873946;29;20478;-70
2023/12/14 10:43:49;;;;;;;12.18;5.65;;;;;;;;;;4913063;29;20063;-69
2023/12/14 10:46:15;;;;;;;14.20;4.55;;;;;;;;;;4912037;29;20111;-67
2023/12/14 10:48:43;;;;;;;20.25;5.20;;;;;;;;;;4912823;29;20054;-67
2023/12/14 10:51:10;;;;;;;22.65;5.10;;;;;;;;;;4880164;29;20431;-67
2023/12/14 10:53:36;;;;;;;7.28;3.22;;;;;;;;;;4913427;29;20582;-69
2023/12/14 10:56:02;;;;;;;5.63;3.50;;;;;;;;;;4915982;29;20111;-68
2023/12/14 10:58:37;;;;;;;16.20;5.07;;;;;;;;;;4859750;29;20513;-68
2023/12/14 11:01:03;;;;;;;24.77;5.95;;;;;;;;;;4873357;29;20063;-72
2023/12/14 11:03:35;;;;;;;12.02;4.57;;;;;;;;;;4899877;29;20063;-69
2023/12/14 11:06:00;;;;;;;23.40;5.15;;;;;;;;;;4894259;29;20043;-68
2023/12/14 11:08:26;;;;;;;13.50;5.47;;;;;;;;;;4914957;29;20040;-70
2023/12/14 11:10:56;;;;;;;14.45;3.58;;;;;;;;;;4910571;29;20057;-70
2023/12/14 11:13:22;;;;;;;18.23;5.68;;;;;;;;;;4897887;29;20039;-72
2023/12/14 11:15:51;;;;;;;11.20;3.92;;;;;;;;;;4895760;29;20515;-70
2023/12/14 11:18:18;;;;;;;11.35;4.00;;;;;;;;;;4907498;29;20083;-70
2023/12/14 11:20:47;;;;;;;25.38;6.07;;;;;;;;;;4915211;29;20466;-71
2023/12/14 11:23:17;;;;;;;21.95;4.40;;;;;;;;;;4915684;29;20088;-70
2023/12/14 11:25:43;;;;;;;7.78;3.97;;;;;;;;;;4913962;29;20063;-70
2023/12/14 11:28:09;;;;;;;14.43;4.32;;;;;;;;;;4913530;29;20043;-70
2023/12/14 11:30:35;;;;;;;21.55;5.13;;;;;;;;;;4913588;29;20384;-71
2023/12/14 11:33:01;;;;;;;28.02;6.15;;;;;;;;;;4906750;29;20043;-69
2023/12/14 11:35:27;;;;;;;29.08;5.82;;;;;;;;;;4898312;29;20271;-71
2023/12/14 11:37:56;;;;;;;27.00;5.15;;;;;;;;;;4911343;29;20212;-70
2023/12/14 11:40:22;;;;;;;16.73;5.63;;;;;;;;;;4895544;29;20123;-70
2023/12/14 11:42:59;;;;;;;12.32;4.75;;;;;;;;;;4895324;29;20040;-67
2023/12/14 11:45:25;;;;;;;28.00;5.47;;;;;;;;;;4881121;29;20147;-69
2023/12/14 11:47:51;;;;;;;18.23;4.85;;;;;;;;;;4906026;29;20085;-68
2023/12/14 11:50:17;;;;;;;16.58;4.80;;;;;;;;;;4914374;29;20103;-69
2023/12/14 11:52:43;;;;;;;9.18;3.03;;;;;;;;;;4891433;29;20032;-69
2023/12/14 11:55:13;;;;;;;22.27;4.80;;;;;;;;;;4896308;29;20742;-70
2023/12/14 11:57:39;;;;;;;19.77;6.90;;;;;;;;;;4912724;29;20507;-69
2023/12/14 12:00:06;;;;;;;27.45;7.82;;;;;;;;;;4912812;29;20174;-69
2023/12/14 12:02:34;;;;;;;13.88;5.45;;;;;;;;;;4906884;29;20543;-70
2023/12/14 12:05:00;;;;;;;28.58;6.40;;;;;;;;;;4913767;29;20043;-69
2023/12/14 12:07:26;;;;;;;20.45;5.70;;;;;;;;;;4908353;29;20048;-69
2023/12/14 12:09:51;;;;;;;28.30;5.32;;;;;;;;;;4912770;29;20036;-68
2023/12/14 12:12:17;;;;;;;31.02;6.63;;;;;;;;;;4909010;29;20036;-69
2023/12/14 12:14:43;;;;;;;26.05;4.75;;;;;;;;;;4895714;29;20039;-68
2023/12/14 12:17:09;;;;;;;24.45;5.03;;;;;;;;;;4907215;29;20530;-71
2023/12/14 12:19:35;;;;;;;22.00;6.18;;;;;;;;;;4893869;29;20468;-70
2023/12/14 12:22:01;;;;;;;9.68;3.83;;;;;;;;;;4909064;29;20056;-69
2023/12/14 12:24:27;;;;;;;6.00;4.22;;;;;;;;;;4908322;29;20079;-69
2023/12/14 12:26:54;;;;;;;17.80;6.20;;;;;;;;;;4895778;29;20051;-69
2023/12/14 12:29:19;;;;;;;25.58;7.05;;;;;;;;;;4909958;29;20064;-70
2023/12/14 12:31:45;;;;;;;13.07;3.80;;;;;;;;;;4890585;29;20064;-69
2023/12/14 12:34:12;;;;;;;19.55;4.47;;;;;;;;;;4911894;29;20062;-71
2023/12/14 12:36:38;;;;;;;22.50;6.80;;;;;;;;;;4911098;29;20036;-69
2023/12/14 12:39:05;;;;;;;14.35;4.18;;;;;;;;;;4905144;29;20099;-70
2023/12/14 12:41:32;;;;;;;12.93;4.60;;;;;;;;;;4912636;29;20690;-68
2023/12/14 12:44:05;;;;;;;8.77;4.60;;;;;;;;;;4912103;29;20115;-68
2023/12/14 12:46:37;;;;;;;21.48;4.15;;;;;;;;;;4912762;29;20063;-70
2023/12/14 12:49:04;;;;;;;20.83;4.30;;;;;;;;;;4895686;29;20511;-70
2023/12/14 12:51:30;;;;;;;10.73;5.18;;;;;;;;;;4910618;29;20040;-68
2023/12/14 12:53:57;;;;;;;8.23;3.97;;;;;;;;;;4903780;29;20071;-70
2023/12/14 12:56:24;;;;;;;29.42;7.13;;;;;;;;;;4912974;29;20028;-69
2023/12/14 12:58:51;;;;;;;20.35;5.68;;;;;;;;;;4912059;29;20132;-70
2023/12/14 13:01:18;;;;;;;17.33;5.00;;;;;;;;;;4894923;29;20028;-70
2023/12/14 13:03:44;;;;;;;14.00;5.20;;;;;;;;;;4911414;29;20553;-69
2023/12/14 13:06:09;;;;;;;29.48;7.95;;;;;;;;;;4894731;29;20024;-71
2023/12/14 13:08:35;;;;;;;19.08;6.15;;;;;;;;;;4909373;29;20052;-67
2023/12/14 13:11:01;;;;;;;9.35;4.68;;;;;;;;;;4908705;29;20024;-69
2023/12/14 13:13:27;;;;;;;15.40;4.85;;;;;;;;;;4904302;29;20495;-70
2023/12/14 13:15:53;;;;;;;9.90;4.03;;;;;;;;;;4911504;29;20036;-69
2023/12/14 13:18:19;;;;;;;10.73;4.93;;;;;;;;;;4904528;29;20475;-71
2023/12/14 13:20:44;;;;;;;10.73;3.90;;;;;;;;;;4909767;29;20040;-73
2023/12/14 13:23:10;;;;;;;10.10;4.88;;;;;;;;;;4896041;29;20395;-71
2023/12/14 13:25:36;;;;;;;4.50;3.35;;;;;;;;;;4911472;29;20040;-71
2023/12/14 13:28:04;;;;;;;11.13;4.32;;;;;;;;;;4894940;29;20055;-72
2023/12/14 13:30:30;;;;;;;14.40;4.85;;;;;;;;;;4911822;29;20415;-72
2023/12/14 13:32:56;;;;;;;17.92;5.65;;;;;;;;;;4903768;29;20517;-72
2023/12/14 13:35:24;;;;;;;18.55;5.15;;;;;;;;;;4891012;29;20040;-72
2023/12/14 13:37:50;;;;;;;25.92;6.45;;;;;;;;;;4907906;29;20036;-71
2023/12/14 13:40:16;;;;;;;31.10;7.10;;;;;;;;;;4910317;29;20088;-71
2023/12/14 13:42:43;;;;;;;17.85;6.43;;;;;;;;;;4893604;29;20411;-72
2023/12/14 13:45:09;;;;;;;22.95;5.07;;;;;;;;;;4880948;29;20036;-71
2023/12/14 13:47:35;;;;;;;22.10;6.05;;;;;;;;;;4913008;29;20052;-72
2023/12/14 13:50:03;;;;;;;21.85;5.90;;;;;;;;;;4913552;29;20139;-71
2023/12/14 13:52:30;;;;;;;8.57;3.80;;;;;;;;;;4897141;29;20175;-71
2023/12/14 13:54:58;;;;;;;23.45;4.90;;;;;;;;;;4913218;29;20032;-70
2023/12/14 13:57:24;;;;;;;18.40;5.25;;;;;;;;;;4914581;29;20121;-71
2023/12/14 13:59:50;;;;;;;15.27;5.40;;;;;;;;;;4915705;29;20040;-70
2023/12/14 14:02:16;;;;;;;19.13;5.80;;;;;;;;;;4882085;29;20119;-72
2023/12/14 14:04:42;;;;;;;11.90;5.28;;;;;;;;;;4915227;29;20089;-71
2023/12/14 14:07:08;;;;;;;19.02;5.57;;;;;;;;;;4916474;29;20119;-70
2023/12/14 14:09:35;;;;;;;21.63;7.25;;;;;;;;;;4898413;29;20036;-71
2023/12/14 14:12:01;;;;;;;22.27;6.15;;;;;;;;;;4914518;29;20039;-71
2023/12/14 14:14:26;;;;;;;14.77;6.10;;;;;;;;;;4915737;29;20371;-72
2023/12/14 14:16:52;;;;;;;17.42;6.05;;;;;;;;;;4897964;29;20214;-71
2023/12/14 14:19:18;;;;;;;26.50;5.50;;;;;;;;;;4899361;29;20035;-72
2023/12/14 14:21:44;;;;;;;23.88;6.35;;;;;;;;;;4915186;29;20131;-72
2023/12/14 14:24:10;;;;;;;29.92;8.23;;;;;;;;;;4915659;29;20423;-71